createdAt,value
2022-12-12T00:01:46.889Z,82.50
2022-12-12T00:04:13.435Z,82.07
2022-12-12T00:06:40.425Z,82.13
2022-12-12T00:09:07.254Z,82.32
2022-12-12T00:11:33.764Z,80.90
2022-12-12T00:14:00.351Z,80.55
2022-12-12T00:16:26.960Z,81.26
2022-12-12T00:18:54.244Z,80.63
2022-12-12T00:21:24.017Z,80.31
2022-12-12T00:23:51.089Z,80.98
2022-12-12T00:26:23.133Z,81.53
2022-12-12T00:28:50.008Z,82.21
2022-12-12T00:31:17.746Z,82.34
2022-12-12T00:33:46.693Z,81.14
2022-12-12T00:36:13.641Z,81.06
2022-12-12T00:38:40.453Z,80.84
2022-12-12T00:41:06.978Z,80.10
2022-12-12T00:43:33.882Z,80.83
2022-12-12T00:46:01.591Z,81.13
2022-12-12T00:48:28.596Z,81.72
2022-12-12T00:50:56.388Z,81.32
2022-12-12T00:53:23.178Z,81.49
2022-12-12T00:55:58.933Z,80.73
2022-12-12T00:58:26.109Z,80.58
2022-12-12T01:00:53.085Z,80.54
2022-12-12T01:03:20.803Z,80.18
2022-12-12T01:05:48.253Z,80.77
2022-12-12T01:08:14.845Z,80.30
2022-12-12T01:10:41.679Z,79.83
2022-12-12T01:13:08.433Z,80.17
2022-12-12T01:15:34.920Z,80.42
2022-12-12T01:18:01.450Z,80.42
2022-12-12T01:20:29.155Z,79.78
2022-12-12T01:22:56.794Z,79.48
2022-12-12T01:25:23.706Z,79.00
2022-12-12T01:27:50.737Z,79.45
2022-12-12T01:30:21.465Z,79.37
2022-12-12T01:32:48.433Z,79.70
2022-12-12T01:35:15.267Z,79.78
2022-12-12T01:37:42.126Z,80.21
2022-12-12T01:40:14.814Z,79.51
2022-12-12T01:42:41.998Z,78.88
2022-12-12T01:45:28.965Z,79.01
2022-12-12T01:47:57.311Z,79.25
2022-12-12T01:50:27.056Z,78.77
2022-12-12T01:52:53.593Z,78.97
2022-12-12T01:55:23.079Z,78.98
2022-12-12T01:57:52.757Z,78.28
2022-12-12T02:00:21.081Z,79.11
2022-12-12T02:02:48.218Z,78.84
2022-12-12T02:05:23.810Z,79.32
2022-12-12T02:07:51.125Z,79.24
2022-12-12T02:10:17.902Z,79.24
2022-12-12T02:12:44.513Z,79.42
2022-12-12T02:15:12.153Z,79.40
2022-12-12T02:17:44.814Z,80.77
2022-12-12T02:20:30.121Z,80.18
2022-12-12T02:23:27.711Z,79.99
2022-12-12T02:26:12.805Z,80.16
2022-12-12T02:28:45.248Z,79.95
2022-12-12T02:31:34.000Z,80.27
2022-12-12T02:34:24.595Z,80.53
2022-12-12T02:37:03.197Z,80.85
2022-12-12T02:39:37.353Z,80.95
2022-12-12T02:42:10.404Z,80.94
2022-12-12T02:44:53.001Z,81.45
2022-12-12T02:47:24.481Z,80.58
2022-12-12T02:49:56.635Z,78.42
2022-12-12T02:52:23.396Z,78.84
2022-12-12T02:54:49.925Z,79.29
2022-12-12T02:57:17.756Z,79.48
2022-12-12T02:59:50.412Z,78.70
2022-12-12T03:02:53.184Z,79.06
2022-12-12T03:06:14.004Z,77.63
2022-12-12T03:08:54.953Z,78.17
2022-12-12T03:11:45.641Z,76.70
2022-12-12T03:14:23.083Z,77.76
2022-12-12T03:17:08.729Z,77.69
2022-12-12T03:20:10.149Z,76.46
2022-12-12T03:22:45.525Z,76.29
2022-12-12T03:25:22.694Z,76.27
2022-12-12T03:27:57.723Z,76.70
2022-12-12T03:30:24.757Z,76.26
2022-12-12T03:33:04.080Z,75.75
2022-12-12T03:35:37.446Z,76.24
2022-12-12T03:38:14.387Z,75.37
2022-12-12T03:40:49.006Z,74.82
2022-12-12T03:43:18.109Z,74.23
2022-12-12T03:45:54.024Z,74.30
2022-12-12T03:48:29.336Z,74.06
2022-12-12T03:51:01.353Z,73.03
2022-12-12T03:53:38.501Z,73.42
2022-12-12T03:56:16.086Z,73.45
2022-12-12T03:58:50.222Z,73.77
2022-12-12T04:01:20.186Z,73.74
2022-12-12T04:04:06.060Z,73.76
2022-12-12T04:06:39.242Z,74.01
2022-12-12T04:09:30.934Z,73.85
2022-12-12T04:12:34.644Z,72.74
2022-12-12T04:15:05.697Z,73.50
2022-12-12T04:17:42.579Z,73.90
2022-12-12T04:20:33.764Z,72.97
2022-12-12T04:23:24.425Z,72.61
2022-12-12T04:26:31.829Z,72.04
2022-12-12T04:29:13.318Z,71.79
2022-12-12T04:31:46.371Z,72.31
2022-12-12T04:34:25.877Z,71.65
2022-12-12T04:36:53.274Z,70.31
2022-12-12T04:39:21.768Z,70.58
2022-12-12T04:41:50.977Z,70.22
2022-12-12T04:44:20.513Z,68.68
2022-12-12T04:46:52.022Z,68.40
2022-12-12T04:49:24.666Z,67.75
2022-12-12T04:51:56.499Z,67.35
2022-12-12T04:54:36.800Z,67.15
2022-12-12T04:57:07.658Z,67.05
2022-12-12T04:59:34.787Z,67.58
2022-12-12T05:02:24.712Z,66.18
2022-12-12T05:04:53.836Z,65.87
2022-12-12T05:07:48.323Z,65.54
2022-12-12T05:10:17.661Z,65.05
2022-12-12T05:12:47.681Z,65.87
2022-12-12T05:15:16.543Z,65.86
2022-12-12T05:17:47.511Z,65.12
2022-12-12T05:20:15.627Z,65.27
2022-12-12T05:22:42.237Z,65.41
2022-12-12T05:25:09.395Z,65.70
2022-12-12T05:27:36.358Z,65.88
2022-12-12T05:30:03.080Z,66.16
2022-12-12T05:32:29.665Z,65.91
2022-12-12T05:34:56.164Z,65.76
2022-12-12T05:37:22.852Z,66.07
2022-12-12T05:39:49.417Z,66.21
2022-12-12T05:42:15.996Z,67.28
2022-12-12T05:44:42.813Z,66.98
2022-12-12T05:47:09.354Z,66.96
2022-12-12T05:49:35.916Z,67.26
2022-12-12T05:52:02.478Z,67.96
2022-12-12T05:54:29.090Z,67.18
2022-12-12T05:56:55.586Z,68.54
2022-12-12T05:59:22.154Z,68.17
2022-12-12T06:01:48.681Z,67.86
2022-12-12T06:04:15.495Z,68.27
2022-12-12T06:06:42.173Z,69.02
2022-12-12T06:09:08.676Z,68.95
2022-12-12T06:11:35.158Z,69.38
2022-12-12T06:14:01.645Z,69.15
2022-12-12T06:16:28.119Z,69.19
2022-12-12T06:18:55.708Z,69.62
2022-12-12T06:21:23.242Z,68.86
2022-12-12T06:23:50.070Z,68.71
2022-12-12T06:26:19.444Z,69.12
2022-12-12T06:28:46.722Z,69.23
2022-12-12T06:31:14.914Z,68.85
2022-12-12T06:33:42.721Z,68.98
2022-12-12T06:36:12.775Z,68.94
2022-12-12T06:38:40.483Z,69.55
2022-12-12T06:41:12.516Z,69.24
2022-12-12T06:43:40.069Z,69.79
2022-12-12T06:46:08.789Z,69.53
2022-12-12T06:48:36.438Z,69.81
2022-12-12T06:51:08.145Z,70.34
2022-12-12T06:53:37.196Z,70.57
2022-12-12T06:56:13.553Z,70.73
2022-12-12T06:58:40.331Z,70.95
2022-12-12T07:01:07.455Z,71.46
2022-12-12T07:03:34.437Z,71.65
2022-12-12T07:06:01.377Z,72.44
2022-12-12T07:08:30.956Z,71.92
2022-12-12T07:11:04.147Z,71.83
2022-12-12T07:13:31.285Z,71.62
2022-12-12T07:15:58.071Z,71.06
2022-12-12T07:18:24.725Z,70.89
2022-12-12T07:20:51.261Z,70.88
2022-12-12T07:23:18.331Z,71.16
2022-12-12T07:25:44.901Z,71.69
2022-12-12T07:28:13.325Z,70.76
2022-12-12T07:30:42.113Z,70.88
2022-12-12T07:33:09.577Z,71.70
2022-12-12T07:35:36.249Z,71.49
2022-12-12T07:38:04.357Z,70.63
2022-12-12T07:40:31.811Z,70.84
2022-12-12T07:42:59.522Z,70.31
2022-12-12T07:45:26.267Z,71.41
2022-12-12T07:47:53.628Z,69.85
2022-12-12T07:50:20.764Z,69.16
2022-12-12T07:52:47.313Z,69.47
2022-12-12T07:55:14.229Z,68.08
2022-12-12T07:57:41.457Z,68.62
2022-12-12T08:00:10.188Z,68.00
2022-12-12T08:02:36.714Z,66.85
2022-12-12T08:05:03.317Z,65.73
2022-12-12T08:07:29.869Z,66.41
2022-12-12T08:09:56.401Z,66.66
2022-12-12T08:12:23.517Z,66.78
2022-12-12T08:14:50.093Z,64.26
2022-12-12T08:17:16.619Z,64.25
2022-12-12T08:19:43.132Z,61.70
2022-12-12T08:22:09.674Z,60.89
2022-12-12T08:24:36.182Z,60.00
2022-12-12T08:27:02.739Z,60.29
2022-12-12T08:29:29.356Z,59.32
2022-12-12T08:31:55.940Z,56.33
2022-12-12T08:34:22.580Z,56.35
2022-12-12T08:36:49.300Z,57.44
2022-12-12T08:39:17.081Z,58.07
2022-12-12T08:41:50.117Z,54.49
2022-12-12T08:44:19.928Z,53.34
2022-12-12T08:46:47.095Z,50.90
2022-12-12T08:49:13.802Z,50.11
2022-12-12T08:51:41.340Z,49.02
2022-12-12T08:54:10.025Z,48.05
2022-12-12T08:56:36.616Z,48.54
2022-12-12T08:59:03.301Z,47.30
2022-12-12T09:01:29.859Z,46.41
2022-12-12T09:03:57.632Z,44.96
2022-12-12T09:06:26.037Z,45.21
2022-12-12T09:08:53.493Z,44.30
2022-12-12T09:11:20.017Z,45.61
2022-12-12T09:13:46.849Z,43.28
2022-12-12T09:16:13.540Z,42.64
2022-12-12T09:18:47.735Z,41.76
2022-12-12T09:21:15.128Z,44.66
2022-12-12T09:23:41.685Z,40.61
2022-12-12T09:26:09.010Z,42.25
2022-12-12T09:28:36.413Z,40.12
2022-12-12T09:31:07.960Z,39.75
2022-12-12T09:33:35.380Z,40.85
2022-12-12T09:36:05.138Z,41.25
2022-12-12T09:38:32.130Z,41.29
2022-12-12T09:41:02.739Z,42.26
2022-12-12T09:43:36.877Z,43.71
2022-12-12T09:46:14.043Z,41.25
2022-12-12T09:48:44.577Z,40.28
2022-12-12T09:51:13.654Z,41.08
2022-12-12T09:53:43.623Z,41.04
2022-12-12T09:56:19.481Z,41.61
2022-12-12T09:59:37.346Z,40.74
2022-12-12T10:02:09.550Z,40.76
2022-12-12T10:04:47.874Z,39.62
2022-12-12T10:07:24.022Z,41.00
2022-12-12T10:10:03.700Z,38.51
2022-12-12T10:12:31.844Z,38.30
2022-12-12T10:15:07.828Z,37.49
2022-12-12T10:17:42.892Z,38.03
2022-12-12T10:20:27.650Z,37.99
2022-12-12T10:23:12.880Z,36.69
2022-12-12T10:25:58.737Z,36.97
2022-12-12T10:28:27.957Z,35.91
2022-12-12T10:31:22.240Z,34.66
2022-12-12T10:33:57.842Z,34.65
2022-12-12T10:36:46.110Z,35.06
2022-12-12T10:39:36.789Z,37.54
2022-12-12T10:42:30.832Z,38.90
2022-12-12T10:45:13.994Z,40.95
2022-12-12T10:47:41.218Z,42.31
2022-12-12T10:50:13.286Z,43.59
2022-12-12T10:52:39.980Z,44.77
2022-12-12T10:55:21.145Z,44.31
2022-12-12T10:57:47.699Z,45.26
2022-12-12T11:00:39.692Z,44.49
2022-12-12T11:03:29.350Z,46.97
2022-12-12T11:05:57.104Z,43.07
2022-12-12T11:08:30.236Z,43.24
2022-12-12T11:11:01.308Z,42.00
2022-12-12T11:13:28.164Z,38.90
2022-12-12T11:16:13.056Z,38.04
2022-12-12T11:18:40.240Z,34.54
2022-12-12T11:21:10.874Z,35.48
2022-12-12T11:23:47.601Z,35.70
2022-12-12T11:26:18.943Z,36.92
2022-12-12T11:28:51.927Z,39.07
2022-12-12T11:31:23.171Z,41.32
2022-12-12T11:33:57.211Z,43.14
2022-12-12T11:36:31.976Z,45.24
2022-12-12T11:39:00.504Z,47.67
2022-12-12T11:41:27.117Z,47.98
2022-12-12T11:43:58.102Z,48.68
2022-12-12T11:46:28.813Z,50.50
2022-12-12T11:48:59.304Z,50.70
2022-12-12T11:51:44.096Z,50.35
2022-12-12T11:54:29.307Z,52.10
2022-12-12T11:57:14.766Z,54.35
2022-12-12T11:59:59.840Z,55.60
2022-12-12T12:02:45.224Z,56.56
2022-12-12T12:05:23.752Z,57.76
2022-12-12T12:08:28.866Z,57.82
2022-12-12T12:11:17.222Z,58.09
2022-12-12T12:13:58.993Z,58.96
2022-12-12T12:16:46.852Z,59.62
2022-12-12T12:19:30.203Z,60.08
2022-12-12T12:21:56.711Z,60.41
2022-12-12T12:24:44.972Z,61.15
2022-12-12T12:27:33.336Z,59.97
2022-12-12T12:30:17.217Z,60.33
2022-12-12T12:32:46.438Z,60.40
2022-12-12T12:35:28.869Z,60.07
2022-12-12T12:38:01.149Z,60.67
2022-12-12T12:41:09.252Z,60.83
2022-12-12T12:43:47.789Z,62.01
2022-12-12T12:46:32.354Z,62.49
2022-12-12T12:49:27.393Z,62.94
2022-12-12T12:51:59.194Z,63.21
2022-12-12T12:54:33.028Z,63.59
2022-12-12T12:57:27.960Z,63.91
2022-12-12T13:00:00.276Z,64.41
2022-12-12T13:02:37.311Z,64.71
2022-12-12T13:05:18.993Z,64.20
2022-12-12T13:07:52.269Z,63.62
2022-12-12T13:10:25.102Z,63.70
2022-12-12T13:12:59.806Z,63.61
2022-12-12T13:15:29.049Z,63.66
2022-12-12T13:18:04.649Z,65.23
2022-12-12T13:20:37.996Z,65.70
2022-12-12T13:23:07.509Z,66.00
2022-12-12T13:26:24.741Z,62.67
2022-12-12T13:29:00.447Z,60.64
2022-12-12T13:31:30.052Z,59.34
2022-12-12T13:34:04.155Z,58.71
2022-12-12T13:36:38.681Z,59.43
2022-12-12T13:39:07.273Z,59.50
2022-12-12T13:41:53.593Z,61.53
2022-12-12T13:44:40.648Z,60.51
2022-12-12T13:47:35.217Z,59.91
2022-12-12T13:50:10.776Z,59.33
2022-12-12T13:52:42.451Z,57.44
2022-12-12T13:55:12.625Z,56.33
2022-12-12T13:57:59.867Z,54.71
2022-12-12T14:00:35.324Z,54.74
2022-12-12T14:03:10.754Z,54.40
2022-12-12T14:05:48.344Z,52.26
2022-12-12T14:08:14.886Z,52.60
2022-12-12T14:10:45.687Z,53.52
2022-12-12T14:13:40.264Z,52.43
2022-12-12T14:16:19.876Z,52.66
2022-12-12T14:18:49.229Z,53.54
2022-12-12T14:21:18.453Z,53.94
2022-12-12T14:23:53.201Z,53.68
2022-12-12T14:26:28.922Z,54.11
2022-12-12T14:29:17.264Z,55.33
2022-12-12T14:32:03.893Z,56.08
2022-12-12T14:34:45.694Z,56.30
2022-12-12T14:37:51.821Z,57.52
2022-12-12T14:40:21.477Z,58.65
2022-12-12T14:43:15.692Z,59.56
2022-12-12T14:45:40.245Z,59.80
2022-12-12T14:48:29.386Z,60.40
2022-12-12T14:51:09.129Z,61.67
2022-12-12T14:53:38.571Z,61.87
2022-12-12T14:56:25.101Z,62.52
2022-12-12T14:58:59.906Z,63.24
2022-12-12T15:01:29.245Z,63.65
2022-12-12T15:03:59.028Z,63.91
2022-12-12T15:06:39.272Z,64.16
2022-12-12T15:09:24.683Z,64.53
2022-12-12T15:11:53.704Z,64.92
2022-12-12T15:14:25.792Z,64.99
2022-12-12T15:16:58.337Z,65.08
2022-12-12T15:19:34.310Z,65.44
2022-12-12T15:22:00.965Z,65.56
2022-12-12T15:24:37.151Z,65.97
2022-12-12T15:27:05.813Z,65.22
2022-12-12T15:29:33.457Z,66.35
2022-12-12T15:32:03.950Z,66.04
2022-12-12T15:34:34.895Z,66.28
2022-12-12T15:37:17.625Z,65.96
2022-12-12T15:39:45.215Z,65.89
2022-12-12T15:42:14.465Z,66.21
2022-12-12T15:44:46.240Z,66.12
2022-12-12T15:47:15.893Z,66.18
2022-12-12T15:49:44.417Z,66.28
2022-12-12T15:52:21.258Z,65.82
2022-12-12T15:54:50.809Z,66.21
2022-12-12T15:57:20.194Z,66.15
2022-12-12T15:59:53.680Z,66.74
2022-12-12T16:02:25.733Z,66.61
2022-12-12T16:05:20.590Z,66.16
2022-12-12T16:07:47.134Z,66.08
2022-12-12T16:10:13.743Z,66.42
2022-12-12T16:12:57.245Z,66.44
2022-12-12T16:15:33.694Z,66.33
2022-12-12T16:18:27.940Z,66.35
2022-12-12T16:20:56.814Z,66.88
2022-12-12T16:23:28.122Z,66.00
2022-12-12T16:25:54.987Z,66.12
2022-12-12T16:28:27.885Z,65.74
2022-12-12T16:31:00.987Z,66.26
2022-12-12T16:33:37.542Z,65.94
2022-12-12T16:36:10.366Z,65.57
2022-12-12T16:38:40.125Z,66.16
2022-12-12T16:41:13.427Z,65.51
2022-12-12T16:43:40.672Z,65.96
2022-12-12T16:46:18.291Z,65.82
2022-12-12T16:48:44.866Z,65.27
2022-12-12T16:51:16.285Z,65.08
2022-12-12T16:53:42.826Z,65.04
2022-12-12T16:56:12.250Z,65.65
2022-12-12T16:58:39.112Z,65.57
2022-12-12T17:01:06.357Z,65.06
2022-12-12T17:03:33.041Z,64.68
2022-12-12T17:06:00.514Z,65.05
2022-12-12T17:08:28.082Z,65.28
2022-12-12T17:11:10.509Z,65.83
2022-12-12T17:13:41.056Z,66.28
2022-12-12T17:16:07.709Z,66.09
2022-12-12T17:18:34.286Z,66.16
2022-12-12T17:21:00.832Z,66.54
2022-12-12T17:23:27.481Z,66.92
2022-12-12T17:25:59.083Z,66.36
2022-12-12T17:28:30.096Z,66.80
2022-12-12T17:30:56.597Z,66.82
2022-12-12T17:33:23.273Z,67.22
2022-12-12T17:36:01.195Z,67.53
2022-12-12T17:38:28.211Z,67.05
2022-12-12T17:40:56.701Z,67.86
2022-12-12T17:43:25.077Z,67.31
2022-12-12T17:46:05.835Z,67.41
2022-12-12T17:48:34.787Z,68.48
2022-12-12T17:51:04.783Z,68.28
2022-12-12T17:53:36.704Z,68.52
2022-12-12T17:56:08.735Z,68.24
2022-12-12T17:58:37.231Z,68.64
2022-12-12T18:01:22.911Z,69.04
2022-12-12T18:03:50.392Z,69.42
2022-12-12T18:06:18.369Z,69.12
2022-12-12T18:08:45.719Z,69.67
2022-12-12T18:11:15.532Z,70.06
2022-12-12T18:13:42.909Z,69.72
2022-12-12T18:16:12.744Z,70.57
2022-12-12T18:18:40.207Z,69.90
2022-12-12T18:21:43.386Z,70.49
2022-12-12T18:24:06.868Z,69.97
2022-12-12T18:26:33.621Z,70.45
2022-12-12T18:29:02.886Z,70.66
2022-12-12T18:31:30.200Z,71.43
2022-12-12T18:33:57.617Z,71.46
2022-12-12T18:36:27.441Z,71.29
2022-12-12T18:38:55.960Z,71.38
2022-12-12T18:41:24.492Z,72.60
2022-12-12T18:43:51.059Z,72.28
2022-12-12T18:46:20.568Z,72.24
2022-12-12T18:48:48.725Z,71.97
2022-12-12T18:51:18.513Z,71.84
2022-12-12T18:53:45.519Z,72.08
2022-12-12T18:56:21.035Z,72.36
2022-12-12T18:58:48.929Z,73.23
2022-12-12T19:01:18.786Z,72.90
2022-12-12T19:03:48.900Z,73.31
2022-12-12T19:06:18.373Z,73.42
2022-12-12T19:08:45.066Z,73.19
2022-12-12T19:11:13.319Z,73.57
2022-12-12T19:13:40.097Z,73.39
2022-12-12T19:16:16.528Z,73.61
2022-12-12T19:18:44.277Z,73.49
2022-12-12T19:21:14.593Z,73.20
2022-12-12T19:23:41.485Z,73.52
2022-12-12T19:26:12.024Z,73.53
2022-12-12T19:28:38.911Z,73.26
2022-12-12T19:31:11.666Z,73.48
2022-12-12T19:33:38.801Z,73.22
2022-12-12T19:36:20.042Z,73.79
2022-12-12T19:38:47.589Z,73.98
2022-12-12T19:41:16.832Z,73.66
2022-12-12T19:43:45.087Z,73.04
2022-12-12T19:46:17.486Z,72.89
2022-12-12T19:48:44.577Z,73.11
2022-12-12T19:51:12.519Z,73.92
2022-12-12T19:53:42.057Z,74.01
2022-12-12T19:56:11.359Z,74.10
2022-12-12T19:58:38.903Z,73.54
2022-12-12T20:01:10.869Z,73.33
2022-12-12T20:03:37.950Z,72.75
2022-12-12T20:06:06.998Z,73.28
2022-12-12T20:08:35.677Z,73.58
2022-12-12T20:11:06.642Z,74.44
2022-12-12T20:13:33.741Z,74.25
2022-12-12T20:16:11.252Z,74.63
2022-12-12T20:18:38.417Z,74.39
2022-12-12T20:21:05.692Z,74.69
2022-12-12T20:23:35.293Z,74.85
2022-12-12T20:26:06.544Z,75.39
2022-12-12T20:28:33.961Z,75.61
2022-12-12T20:31:05.765Z,75.53
2022-12-12T20:33:32.731Z,76.07
2022-12-12T20:36:07.823Z,76.29
2022-12-12T20:38:36.120Z,76.28
2022-12-12T20:41:09.811Z,76.65
2022-12-12T20:43:36.580Z,75.92
2022-12-12T20:46:18.527Z,75.55
2022-12-12T20:48:46.191Z,75.74
2022-12-12T20:51:53.000Z,75.46
2022-12-12T20:54:06.365Z,75.48
2022-12-12T20:56:33.505Z,76.03
2022-12-12T20:59:02.708Z,76.06
2022-12-12T21:01:32.012Z,76.14
2022-12-12T21:03:59.926Z,76.13
2022-12-12T21:06:29.283Z,76.40
2022-12-12T21:08:56.105Z,76.68
2022-12-12T21:11:25.508Z,75.92
2022-12-12T21:13:53.472Z,76.27
2022-12-12T21:16:23.498Z,75.87
2022-12-12T21:18:51.962Z,75.98
2022-12-12T21:21:19.095Z,75.80
2022-12-12T21:23:47.186Z,75.97
2022-12-12T21:26:25.201Z,76.01
2022-12-12T21:28:55.700Z,75.67
2022-12-12T21:31:28.286Z,76.09
2022-12-12T21:33:55.046Z,76.93
2022-12-12T21:36:23.405Z,77.55
2022-12-12T21:38:51.647Z,76.83
2022-12-12T21:41:20.269Z,77.34
2022-12-12T21:43:48.845Z,77.78
2022-12-12T21:46:20.857Z,77.84
2022-12-12T21:49:07.999Z,77.82
2022-12-12T21:51:35.341Z,77.73
2022-12-12T21:54:04.093Z,77.81
2022-12-12T21:56:31.092Z,78.15
2022-12-12T21:58:58.558Z,78.72
2022-12-12T22:01:25.760Z,78.59
2022-12-12T22:03:53.537Z,79.11
2022-12-12T22:06:23.326Z,79.52
2022-12-12T22:08:50.336Z,79.73
2022-12-12T22:11:34.349Z,80.67
2022-12-12T22:14:06.366Z,79.98
2022-12-12T22:16:33.831Z,79.79
2022-12-12T22:19:06.298Z,79.93
2022-12-12T22:21:33.661Z,78.93
2022-12-12T22:24:00.969Z,79.14
2022-12-12T22:26:30.229Z,77.96
2022-12-12T22:28:59.555Z,77.91
2022-12-12T22:31:28.805Z,77.64
2022-12-12T22:34:04.107Z,78.02
2022-12-12T22:36:32.941Z,77.19
2022-12-12T22:39:01.200Z,76.91
2022-12-12T22:41:29.387Z,77.14
2022-12-12T22:44:01.084Z,76.71
2022-12-12T22:46:28.927Z,77.56
2022-12-12T22:48:57.468Z,77.74
2022-12-12T22:51:26.897Z,77.99
2022-12-12T22:53:56.605Z,77.76
2022-12-12T22:56:23.707Z,78.29
2022-12-12T22:58:51.656Z,78.64
2022-12-12T23:01:20.772Z,78.77
2022-12-12T23:03:48.248Z,79.16
2022-12-12T23:06:14.697Z,78.26
2022-12-12T23:08:42.585Z,77.55
2022-12-12T23:11:16.016Z,77.68
2022-12-12T23:13:44.357Z,77.90
2022-12-12T23:16:16.404Z,77.36
2022-12-12T23:18:43.278Z,77.15
2022-12-12T23:21:16.733Z,77.89
2022-12-12T23:23:44.173Z,78.41
2022-12-12T23:26:14.144Z,77.96
2022-12-12T23:28:41.575Z,77.53
2022-12-12T23:31:10.658Z,77.99
2022-12-12T23:33:37.345Z,78.60
2022-12-12T23:36:05.453Z,78.47
2022-12-12T23:38:31.938Z,78.14
2022-12-12T23:41:02.660Z,78.55
2022-12-12T23:43:29.207Z,79.05
2022-12-12T23:45:55.759Z,78.95
2022-12-12T23:48:22.284Z,79.84
2022-12-12T23:50:48.840Z,79.44
2022-12-12T23:53:15.644Z,79.21
2022-12-12T23:55:42.153Z,79.62
2022-12-12T23:58:08.620Z,78.97
